sensor_id;sensor_type;location;lat;lon;timestamp;P1;durP1;ratioP1;P2;durP2;ratioP2
13208;SDS011;6669;42.678;23.332;2022-08-21T00:00:32;11.13;;;7.65;;
13208;SDS011;6669;42.678;23.332;2022-08-21T00:03:00;8.93;;;6.55;;
13208;SDS011;6669;42.678;23.332;2022-08-21T00:05:32;10.07;;;6.65;;
13208;SDS011;6669;42.678;23.332;2022-08-21T00:08:05;11.63;;;7.30;;
13208;SDS011;6669;42.678;23.332;2022-08-21T00:10:34;11.18;;;7.45;;
13208;SDS011;6669;42.678;23.332;2022-08-21T00:13:02;10.50;;;7.30;;
13208;SDS011;6669;42.678;23.332;2022-08-21T00:15:31;10.77;;;7.00;;
13208;SDS011;6669;42.678;23.332;2022-08-21T00:18:01;9.63;;;6.80;;
13208;SDS011;6669;42.678;23.332;2022-08-21T00:20:31;10.35;;;6.70;;
13208;SDS011;6669;42.678;23.332;2022-08-21T00:22:59;10.75;;;6.80;;
13208;SDS011;6669;42.678;23.332;2022-08-21T00:25:29;9.25;;;6.40;;
13208;SDS011;6669;42.678;23.332;2022-08-21T00:27:58;9.90;;;6.43;;
13208;SDS011;6669;42.678;23.332;2022-08-21T00:30:28;10.80;;;6.65;;
13208;SDS011;6669;42.678;23.332;2022-08-21T00:32:57;9.68;;;6.32;;
13208;SDS011;6669;42.678;23.332;2022-08-21T00:35:30;10.10;;;7.28;;
13208;SDS011;6669;42.678;23.332;2022-08-21T00:38:02;9.57;;;7.05;;
13208;SDS011;6669;42.678;23.332;2022-08-21T00:40:33;9.45;;;5.78;;
13208;SDS011;6669;42.678;23.332;2022-08-21T00:43:06;9.48;;;6.53;;
13208;SDS011;6669;42.678;23.332;2022-08-21T00:45:37;11.30;;;7.57;;
13208;SDS011;6669;42.678;23.332;2022-08-21T00:48:06;13.45;;;8.10;;
13208;SDS011;6669;42.678;23.332;2022-08-21T00:50:35;14.32;;;8.27;;
13208;SDS011;6669;42.678;23.332;2022-08-21T00:53:07;12.07;;;7.72;;
13208;SDS011;6669;42.678;23.332;2022-08-21T00:55:38;11.95;;;7.45;;
13208;SDS011;6669;42.678;23.332;2022-08-21T00:58:08;11.50;;;8.50;;
13208;SDS011;6669;42.678;23.332;2022-08-21T01:00:39;11.10;;;6.63;;
13208;SDS011;6669;42.678;23.332;2022-08-21T01:03:10;11.05;;;7.65;;
13208;SDS011;6669;42.678;23.332;2022-08-21T01:05:40;10.38;;;7.45;;
13208;SDS011;6669;42.678;23.332;2022-08-21T01:08:09;8.52;;;6.35;;
13208;SDS011;6669;42.678;23.332;2022-08-21T01:10:39;9.40;;;7.03;;
13208;SDS011;6669;42.678;23.332;2022-08-21T01:13:10;9.20;;;6.38;;
13208;SDS011;6669;42.678;23.332;2022-08-21T01:15:44;8.23;;;5.57;;
13208;SDS011;6669;42.678;23.332;2022-08-21T01:18:15;7.43;;;6.00;;
13208;SDS011;6669;42.678;23.332;2022-08-21T01:20:44;8.88;;;5.68;;
13208;SDS011;6669;42.678;23.332;2022-08-21T01:23:23;9.23;;;5.85;;
13208;SDS011;6669;42.678;23.332;2022-08-21T01:25:51;8.38;;;5.90;;
13208;SDS011;6669;42.678;23.332;2022-08-21T01:28:19;8.90;;;6.00;;
13208;SDS011;6669;42.678;23.332;2022-08-21T01:30:50;9.38;;;5.68;;
13208;SDS011;6669;42.678;23.332;2022-08-21T01:33:20;7.15;;;5.15;;
13208;SDS011;6669;42.678;23.332;2022-08-21T01:35:53;7.88;;;5.90;;
13208;SDS011;6669;42.678;23.332;2022-08-21T01:38:21;7.63;;;5.88;;
13208;SDS011;6669;42.678;23.332;2022-08-21T01:40:53;7.22;;;5.82;;
13208;SDS011;6669;42.678;23.332;2022-08-21T01:43:22;8.07;;;5.85;;
13208;SDS011;6669;42.678;23.332;2022-08-21T01:46:02;7.70;;;5.40;;
13208;SDS011;6669;42.678;23.332;2022-08-21T01:48:30;6.10;;;4.55;;
13208;SDS011;6669;42.678;23.332;2022-08-21T01:51:00;5.05;;;4.03;;
13208;SDS011;6669;42.678;23.332;2022-08-21T01:53:28;6.60;;;4.95;;
13208;SDS011;6669;42.678;23.332;2022-08-21T01:55:59;5.45;;;4.32;;
13208;SDS011;6669;42.678;23.332;2022-08-21T01:58:28;6.80;;;4.78;;
13208;SDS011;6669;42.678;23.332;2022-08-21T02:00:56;7.60;;;4.65;;
13208;SDS011;6669;42.678;23.332;2022-08-21T02:03:24;6.25;;;4.53;;
13208;SDS011;6669;42.678;23.332;2022-08-21T02:06:03;7.65;;;4.70;;
13208;SDS011;6669;42.678;23.332;2022-08-21T02:08:32;9.35;;;4.53;;
13208;SDS011;6669;42.678;23.332;2022-08-21T02:11:00;5.78;;;4.28;;
13208;SDS011;6669;42.678;23.332;2022-08-21T02:13:28;6.75;;;3.97;;
13208;SDS011;6669;42.678;23.332;2022-08-21T02:15:57;8.73;;;4.90;;
13208;SDS011;6669;42.678;23.332;2022-08-21T02:18:25;7.70;;;5.38;;
13208;SDS011;6669;42.678;23.332;2022-08-21T02:20:53;7.32;;;5.53;;
13208;SDS011;6669;42.678;23.332;2022-08-21T02:23:23;8.15;;;5.57;;
13208;SDS011;6669;42.678;23.332;2022-08-21T02:25:53;8.82;;;6.15;;
13208;SDS011;6669;42.678;23.332;2022-08-21T02:28:21;7.32;;;5.10;;
13208;SDS011;6669;42.678;23.332;2022-08-21T02:30:50;9.70;;;6.13;;
13208;SDS011;6669;42.678;23.332;2022-08-21T02:33:19;9.32;;;6.30;;
13208;SDS011;6669;42.678;23.332;2022-08-21T02:35:47;11.55;;;6.57;;
13208;SDS011;6669;42.678;23.332;2022-08-21T02:38:17;11.05;;;6.70;;
13208;SDS011;6669;42.678;23.332;2022-08-21T02:40:49;11.07;;;6.53;;
13208;SDS011;6669;42.678;23.332;2022-08-21T02:43:19;12.40;;;6.95;;
13208;SDS011;6669;42.678;23.332;2022-08-21T02:45:49;10.13;;;6.88;;
13208;SDS011;6669;42.678;23.332;2022-08-21T02:48:19;9.18;;;6.63;;
13208;SDS011;6669;42.678;23.332;2022-08-21T02:50:51;10.10;;;6.53;;
13208;SDS011;6669;42.678;23.332;2022-08-21T02:53:21;10.30;;;7.05;;
13208;SDS011;6669;42.678;23.332;2022-08-21T02:55:50;12.68;;;6.63;;
13208;SDS011;6669;42.678;23.332;2022-08-21T02:58:20;8.43;;;5.72;;
13208;SDS011;6669;42.678;23.332;2022-08-21T03:00:51;9.27;;;6.20;;
13208;SDS011;6669;42.678;23.332;2022-08-21T03:03:20;9.15;;;6.43;;
13208;SDS011;6669;42.678;23.332;2022-08-21T03:05:48;7.63;;;5.90;;
13208;SDS011;6669;42.678;23.332;2022-08-21T03:08:16;7.55;;;5.55;;
13208;SDS011;6669;42.678;23.332;2022-08-21T03:10:46;9.75;;;6.32;;
13208;SDS011;6669;42.678;23.332;2022-08-21T03:13:18;8.75;;;5.95;;
13208;SDS011;6669;42.678;23.332;2022-08-21T03:15:48;7.35;;;5.82;;
13208;SDS011;6669;42.678;23.332;2022-08-21T03:18:16;8.60;;;5.95;;
13208;SDS011;6669;42.678;23.332;2022-08-21T03:20:45;9.77;;;5.45;;
13208;SDS011;6669;42.678;23.332;2022-08-21T03:23:13;10.55;;;6.05;;
13208;SDS011;6669;42.678;23.332;2022-08-21T03:25:44;6.10;;;4.90;;
13208;SDS011;6669;42.678;23.332;2022-08-21T03:28:15;9.18;;;5.35;;
13208;SDS011;6669;42.678;23.332;2022-08-21T03:30:48;7.55;;;4.60;;
13208;SDS011;6669;42.678;23.332;2022-08-21T03:33:18;5.07;;;3.38;;
13208;SDS011;6669;42.678;23.332;2022-08-21T03:35:50;5.95;;;4.10;;
13208;SDS011;6669;42.678;23.332;2022-08-21T03:38:24;6.88;;;4.15;;
13208;SDS011;6669;42.678;23.332;2022-08-21T03:40:53;5.38;;;4.20;;
13208;SDS011;6669;42.678;23.332;2022-08-21T03:43:23;6.45;;;3.72;;
13208;SDS011;6669;42.678;23.332;2022-08-21T03:45:51;6.78;;;4.97;;
13208;SDS011;6669;42.678;23.332;2022-08-21T03:48:19;5.93;;;3.92;;
13208;SDS011;6669;42.678;23.332;2022-08-21T03:50:48;5.70;;;4.32;;
13208;SDS011;6669;42.678;23.332;2022-08-21T03:53:19;6.32;;;3.72;;
13208;SDS011;6669;42.678;23.332;2022-08-21T03:55:48;7.80;;;4.95;;
13208;SDS011;6669;42.678;23.332;2022-08-21T03:58:19;4.55;;;4.03;;
13208;SDS011;6669;42.678;23.332;2022-08-21T04:00:53;5.03;;;4.00;;
13208;SDS011;6669;42.678;23.332;2022-08-21T04:03:23;5.50;;;3.95;;
13208;SDS011;6669;42.678;23.332;2022-08-21T04:05:51;5.13;;;3.38;;
13208;SDS011;6669;42.678;23.332;2022-08-21T04:08:20;5.03;;;4.03;;
13208;SDS011;6669;42.678;23.332;2022-08-21T04:10:48;4.40;;;3.65;;
13208;SDS011;6669;42.678;23.332;2022-08-21T04:13:19;3.95;;;3.17;;
13208;SDS011;6669;42.678;23.332;2022-08-21T04:15:48;4.82;;;3.17;;
13208;SDS011;6669;42.678;23.332;2022-08-21T04:18:18;3.97;;;3.25;;
13208;SDS011;6669;42.678;23.332;2022-08-21T04:20:46;4.28;;;3.17;;
13208;SDS011;6669;42.678;23.332;2022-08-21T04:23:17;4.97;;;3.10;;
13208;SDS011;6669;42.678;23.332;2022-08-21T04:25:50;4.50;;;3.83;;
13208;SDS011;6669;42.678;23.332;2022-08-21T04:28:19;4.75;;;3.63;;
13208;SDS011;6669;42.678;23.332;2022-08-21T04:30:48;5.15;;;4.00;;
13208;SDS011;6669;42.678;23.332;2022-08-21T04:33:20;4.07;;;3.33;;
13208;SDS011;6669;42.678;23.332;2022-08-21T04:35:49;4.18;;;3.47;;
13208;SDS011;6669;42.678;23.332;2022-08-21T04:38:17;4.15;;;3.17;;
13208;SDS011;6669;42.678;23.332;2022-08-21T04:40:46;3.70;;;3.00;;
13208;SDS011;6669;42.678;23.332;2022-08-21T04:43:15;3.63;;;3.17;;
13208;SDS011;6669;42.678;23.332;2022-08-21T04:45:45;3.47;;;2.78;;
13208;SDS011;6669;42.678;23.332;2022-08-21T04:48:16;2.88;;;2.47;;
13208;SDS011;6669;42.678;23.332;2022-08-21T04:50:48;3.55;;;2.75;;
13208;SDS011;6669;42.678;23.332;2022-08-21T04:53:24;3.22;;;2.88;;
13208;SDS011;6669;42.678;23.332;2022-08-21T04:55:58;3.60;;;2.53;;
13208;SDS011;6669;42.678;23.332;2022-08-21T04:58:31;3.00;;;2.53;;
13208;SDS011;6669;42.678;23.332;2022-08-21T05:01:00;3.58;;;2.80;;
13208;SDS011;6669;42.678;23.332;2022-08-21T05:03:29;3.30;;;2.55;;
13208;SDS011;6669;42.678;23.332;2022-08-21T05:06:01;3.42;;;2.65;;
13208;SDS011;6669;42.678;23.332;2022-08-21T05:08:32;3.45;;;2.95;;
13208;SDS011;6669;42.678;23.332;2022-08-21T05:11:02;3.20;;;2.90;;
13208;SDS011;6669;42.678;23.332;2022-08-21T05:13:30;3.47;;;3.15;;
13208;SDS011;6669;42.678;23.332;2022-08-21T05:15:59;4.57;;;3.83;;
13208;SDS011;6669;42.678;23.332;2022-08-21T05:18:27;4.50;;;3.70;;
13208;SDS011;6669;42.678;23.332;2022-08-21T05:20:55;3.63;;;3.15;;
13208;SDS011;6669;42.678;23.332;2022-08-21T05:23:25;2.80;;;2.50;;
13208;SDS011;6669;42.678;23.332;2022-08-21T05:25:54;4.97;;;3.22;;
13208;SDS011;6669;42.678;23.332;2022-08-21T05:28:39;3.40;;;3.05;;
13208;SDS011;6669;42.678;23.332;2022-08-21T05:31:07;3.95;;;2.85;;
13208;SDS011;6669;42.678;23.332;2022-08-21T05:33:36;5.18;;;3.75;;
13208;SDS011;6669;42.678;23.332;2022-08-21T05:36:09;3.00;;;2.70;;
13208;SDS011;6669;42.678;23.332;2022-08-21T05:38:39;3.65;;;2.92;;
13208;SDS011;6669;42.678;23.332;2022-08-21T05:41:08;3.67;;;3.30;;
13208;SDS011;6669;42.678;23.332;2022-08-21T05:43:37;4.35;;;3.92;;
13208;SDS011;6669;42.678;23.332;2022-08-21T05:46:06;3.00;;;2.42;;
13208;SDS011;6669;42.678;23.332;2022-08-21T05:48:35;3.40;;;3.05;;
13208;SDS011;6669;42.678;23.332;2022-08-21T05:51:04;4.22;;;3.08;;
13208;SDS011;6669;42.678;23.332;2022-08-21T05:53:35;3.47;;;3.00;;
13208;SDS011;6669;42.678;23.332;2022-08-21T05:56:05;3.58;;;2.60;;
13208;SDS011;6669;42.678;23.332;2022-08-21T05:58:34;4.53;;;3.10;;
13208;SDS011;6669;42.678;23.332;2022-08-21T06:01:03;3.17;;;2.67;;
13208;SDS011;6669;42.678;23.332;2022-08-21T06:03:36;2.67;;;2.40;;
13208;SDS011;6669;42.678;23.332;2022-08-21T06:06:07;3.72;;;3.03;;
13208;SDS011;6669;42.678;23.332;2022-08-21T06:08:35;3.08;;;2.78;;
13208;SDS011;6669;42.678;23.332;2022-08-21T06:11:05;3.13;;;2.53;;
13208;SDS011;6669;42.678;23.332;2022-08-21T06:13:35;2.60;;;2.35;;
13208;SDS011;6669;42.678;23.332;2022-08-21T06:16:06;3.00;;;2.70;;
13208;SDS011;6669;42.678;23.332;2022-08-21T06:18:41;3.58;;;2.50;;
13208;SDS011;6669;42.678;23.332;2022-08-21T06:21:10;2.60;;;2.40;;
13208;SDS011;6669;42.678;23.332;2022-08-21T06:23:39;4.10;;;2.30;;
13208;SDS011;6669;42.678;23.332;2022-08-21T06:26:11;3.10;;;2.80;;
13208;SDS011;6669;42.678;23.332;2022-08-21T06:28:41;2.85;;;2.42;;
13208;SDS011;6669;42.678;23.332;2022-08-21T06:31:11;3.08;;;2.80;;
13208;SDS011;6669;42.678;23.332;2022-08-21T06:33:41;3.10;;;2.60;;
13208;SDS011;6669;42.678;23.332;2022-08-21T06:36:14;2.78;;;2.47;;
13208;SDS011;6669;42.678;23.332;2022-08-21T06:38:43;2.53;;;2.33;;
13208;SDS011;6669;42.678;23.332;2022-08-21T06:41:19;2.80;;;2.25;;
13208;SDS011;6669;42.678;23.332;2022-08-21T06:43:51;3.22;;;2.85;;
13208;SDS011;6669;42.678;23.332;2022-08-21T06:46:20;2.28;;;2.08;;
13208;SDS011;6669;42.678;23.332;2022-08-21T06:48:49;2.20;;;2.00;;
13208;SDS011;6669;42.678;23.332;2022-08-21T06:51:18;2.15;;;1.73;;
13208;SDS011;6669;42.678;23.332;2022-08-21T06:53:47;2.28;;;1.75;;
13208;SDS011;6669;42.678;23.332;2022-08-21T06:56:15;3.20;;;2.03;;
13208;SDS011;6669;42.678;23.332;2022-08-21T06:58:46;2.70;;;2.08;;
13208;SDS011;6669;42.678;23.332;2022-08-21T07:01:15;3.25;;;2.15;;
13208;SDS011;6669;42.678;23.332;2022-08-21T07:03:44;1.85;;;1.70;;
13208;SDS011;6669;42.678;23.332;2022-08-21T07:06:13;2.33;;;2.03;;
13208;SDS011;6669;42.678;23.332;2022-08-21T07:08:41;1.77;;;1.67;;
13208;SDS011;6669;42.678;23.332;2022-08-21T07:11:12;2.67;;;1.75;;
13208;SDS011;6669;42.678;23.332;2022-08-21T07:13:47;1.77;;;1.67;;
13208;SDS011;6669;42.678;23.332;2022-08-21T07:16:17;1.80;;;1.65;;
13208;SDS011;6669;42.678;23.332;2022-08-21T07:18:46;3.42;;;2.53;;
13208;SDS011;6669;42.678;23.332;2022-08-21T07:21:16;3.05;;;2.70;;
13208;SDS011;6669;42.678;23.332;2022-08-21T07:23:58;5.95;;;3.45;;
13208;SDS011;6669;42.678;23.332;2022-08-21T07:26:29;2.97;;;2.67;;
13208;SDS011;6669;42.678;23.332;2022-08-21T07:29:00;3.10;;;2.80;;
13208;SDS011;6669;42.678;23.332;2022-08-21T07:31:29;3.13;;;2.60;;
13208;SDS011;6669;42.678;23.332;2022-08-21T07:33:58;3.05;;;2.40;;
13208;SDS011;6669;42.678;23.332;2022-08-21T07:36:46;3.05;;;2.72;;
13208;SDS011;6669;42.678;23.332;2022-08-21T07:39:16;3.53;;;2.88;;
13208;SDS011;6669;42.678;23.332;2022-08-21T07:41:44;3.50;;;2.78;;
13208;SDS011;6669;42.678;23.332;2022-08-21T07:44:14;3.97;;;2.97;;
13208;SDS011;6669;42.678;23.332;2022-08-21T07:46:44;5.72;;;5.07;;
13208;SDS011;6669;42.678;23.332;2022-08-21T07:49:40;3.92;;;2.70;;
13208;SDS011;6669;42.678;23.332;2022-08-21T07:52:09;4.70;;;3.53;;
13208;SDS011;6669;42.678;23.332;2022-08-21T07:54:37;3.30;;;3.00;;
13208;SDS011;6669;42.678;23.332;2022-08-21T07:57:05;3.20;;;2.90;;
13208;SDS011;6669;42.678;23.332;2022-08-21T07:59:35;3.80;;;3.15;;
13208;SDS011;6669;42.678;23.332;2022-08-21T08:02:05;3.25;;;2.95;;
13208;SDS011;6669;42.678;23.332;2022-08-21T08:04:34;2.92;;;2.55;;
13208;SDS011;6669;42.678;23.332;2022-08-21T08:07:15;3.35;;;3.05;;
13208;SDS011;6669;42.678;23.332;2022-08-21T08:09:45;3.95;;;3.10;;
13208;SDS011;6669;42.678;23.332;2022-08-21T08:12:14;3.50;;;3.13;;
13208;SDS011;6669;42.678;23.332;2022-08-21T08:14:44;3.72;;;2.75;;
13208;SDS011;6669;42.678;23.332;2022-08-21T08:17:13;3.08;;;2.72;;
13208;SDS011;6669;42.678;23.332;2022-08-21T08:19:42;3.45;;;3.15;;
13208;SDS011;6669;42.678;23.332;2022-08-21T08:22:13;3.30;;;3.00;;
13208;SDS011;6669;42.678;23.332;2022-08-21T08:24:42;3.22;;;2.83;;
13208;SDS011;6669;42.678;23.332;2022-08-21T08:27:11;3.42;;;3.13;;
13208;SDS011;6669;42.678;23.332;2022-08-21T08:29:39;3.75;;;2.80;;
13208;SDS011;6669;42.678;23.332;2022-08-21T08:32:13;4.85;;;3.70;;
13208;SDS011;6669;42.678;23.332;2022-08-21T08:34:43;3.80;;;2.85;;
13208;SDS011;6669;42.678;23.332;2022-08-21T08:37:13;3.53;;;3.05;;
13208;SDS011;6669;42.678;23.332;2022-08-21T08:39:43;3.08;;;2.78;;
13208;SDS011;6669;42.678;23.332;2022-08-21T08:42:29;4.32;;;2.72;;
13208;SDS011;6669;42.678;23.332;2022-08-21T08:45:04;3.33;;;3.03;;
13208;SDS011;6669;42.678;23.332;2022-08-21T08:47:53;3.25;;;2.90;;
13208;SDS011;6669;42.678;23.332;2022-08-21T08:50:25;5.18;;;3.20;;
13208;SDS011;6669;42.678;23.332;2022-08-21T08:53:00;3.97;;;3.08;;
13208;SDS011;6669;42.678;23.332;2022-08-21T08:55:38;2.92;;;2.70;;
13208;SDS011;6669;42.678;23.332;2022-08-21T08:58:12;2.90;;;2.63;;
13208;SDS011;6669;42.678;23.332;2022-08-21T09:00:44;3.35;;;3.05;;
13208;SDS011;6669;42.678;23.332;2022-08-21T09:03:19;4.07;;;3.20;;
13208;SDS011;6669;42.678;23.332;2022-08-21T09:05:52;2.80;;;2.53;;
13208;SDS011;6669;42.678;23.332;2022-08-21T09:08:36;2.65;;;2.42;;
13208;SDS011;6669;42.678;23.332;2022-08-21T09:11:20;2.70;;;2.50;;
13208;SDS011;6669;42.678;23.332;2022-08-21T09:13:56;3.28;;;2.97;;
13208;SDS011;6669;42.678;23.332;2022-08-21T09:16:38;3.13;;;2.83;;
13208;SDS011;6669;42.678;23.332;2022-08-21T09:19:25;2.58;;;2.38;;
13208;SDS011;6669;42.678;23.332;2022-08-21T09:22:07;2.20;;;2.00;;
13208;SDS011;6669;42.678;23.332;2022-08-21T09:24:44;2.28;;;2.00;;
13208;SDS011;6669;42.678;23.332;2022-08-21T09:27:22;3.22;;;2.35;;
13208;SDS011;6669;42.678;23.332;2022-08-21T09:29:51;2.40;;;2.20;;
13208;SDS011;6669;42.678;23.332;2022-08-21T09:32:22;2.15;;;1.95;;
13208;SDS011;6669;42.678;23.332;2022-08-21T09:35:06;2.38;;;2.17;;
13208;SDS011;6669;42.678;23.332;2022-08-21T09:37:48;1.90;;;1.80;;
13208;SDS011;6669;42.678;23.332;2022-08-21T09:40:32;2.05;;;1.88;;
13208;SDS011;6669;42.678;23.332;2022-08-21T09:43:05;1.92;;;1.83;;
13208;SDS011;6669;42.678;23.332;2022-08-21T09:45:43;2.00;;;1.83;;
13208;SDS011;6669;42.678;23.332;2022-08-21T09:48:15;2.17;;;2.00;;
13208;SDS011;6669;42.678;23.332;2022-08-21T09:51:06;2.00;;;1.80;;
13208;SDS011;6669;42.678;23.332;2022-08-21T09:53:42;2.00;;;1.80;;
13208;SDS011;6669;42.678;23.332;2022-08-21T09:56:19;2.20;;;1.85;;
13208;SDS011;6669;42.678;23.332;2022-08-21T09:59:15;1.67;;;1.58;;
13208;SDS011;6669;42.678;23.332;2022-08-21T10:01:48;2.13;;;1.92;;
13208;SDS011;6669;42.678;23.332;2022-08-21T10:04:22;2.55;;;2.35;;
13208;SDS011;6669;42.678;23.332;2022-08-21T10:06:53;2.08;;;1.98;;
13208;SDS011;6669;42.678;23.332;2022-08-21T10:09:39;2.03;;;1.75;;
13208;SDS011;6669;42.678;23.332;2022-08-21T10:12:09;2.05;;;1.85;;
13208;SDS011;6669;42.678;23.332;2022-08-21T10:14:46;2.20;;;1.90;;
13208;SDS011;6669;42.678;23.332;2022-08-21T10:17:25;2.72;;;1.95;;
13208;SDS011;6669;42.678;23.332;2022-08-21T10:20:03;2.45;;;2.25;;
13208;SDS011;6669;42.678;23.332;2022-08-21T10:22:38;2.33;;;1.80;;
13208;SDS011;6669;42.678;23.332;2022-08-21T10:25:29;1.80;;;1.70;;
13208;SDS011;6669;42.678;23.332;2022-08-21T10:28:32;2.88;;;1.80;;
13208;SDS011;6669;42.678;23.332;2022-08-21T10:31:11;3.42;;;2.10;;
13208;SDS011;6669;42.678;23.332;2022-08-21T10:34:04;3.10;;;2.22;;
13208;SDS011;6669;42.678;23.332;2022-08-21T10:37:01;2.05;;;1.75;;
13208;SDS011;6669;42.678;23.332;2022-08-21T10:39:41;2.70;;;2.15;;
13208;SDS011;6669;42.678;23.332;2022-08-21T10:42:33;2.50;;;2.30;;
13208;SDS011;6669;42.678;23.332;2022-08-21T10:45:10;3.00;;;2.00;;
13208;SDS011;6669;42.678;23.332;2022-08-21T10:47:50;2.50;;;2.30;;
13208;SDS011;6669;42.678;23.332;2022-08-21T10:50:27;1.95;;;1.83;;
13208;SDS011;6669;42.678;23.332;2022-08-21T10:53:06;2.35;;;1.88;;
13208;SDS011;6669;42.678;23.332;2022-08-21T10:55:51;2.00;;;1.60;;
13208;SDS011;6669;42.678;23.332;2022-08-21T10:58:29;2.78;;;2.00;;
13208;SDS011;6669;42.678;23.332;2022-08-21T11:01:03;2.30;;;1.90;;
13208;SDS011;6669;42.678;23.332;2022-08-21T11:03:39;1.88;;;1.77;;
13208;SDS011;6669;42.678;23.332;2022-08-21T11:06:14;2.45;;;2.25;;
13208;SDS011;6669;42.678;23.332;2022-08-21T11:08:48;2.47;;;1.75;;
13208;SDS011;6669;42.678;23.332;2022-08-21T11:11:26;2.00;;;1.80;;
13208;SDS011;6669;42.678;23.332;2022-08-21T11:14:03;1.98;;;1.85;;
13208;SDS011;6669;42.678;23.332;2022-08-21T11:16:40;2.08;;;1.88;;
13208;SDS011;6669;42.678;23.332;2022-08-21T11:19:13;2.15;;;1.90;;
13208;SDS011;6669;42.678;23.332;2022-08-21T11:21:47;1.50;;;1.40;;
13208;SDS011;6669;42.678;23.332;2022-08-21T11:24:24;1.63;;;1.52;;
13208;SDS011;6669;42.678;23.332;2022-08-21T11:27:09;2.97;;;1.80;;
13208;SDS011;6669;42.678;23.332;2022-08-21T11:29:52;1.55;;;1.40;;
13208;SDS011;6669;42.678;23.332;2022-08-21T11:32:27;1.90;;;1.60;;
13208;SDS011;6669;42.678;23.332;2022-08-21T11:35:38;4.45;;;2.38;;
13208;SDS011;6669;42.678;23.332;2022-08-21T11:38:22;2.42;;;2.22;;
13208;SDS011;6669;42.678;23.332;2022-08-21T11:41:09;1.80;;;1.58;;
13208;SDS011;6669;42.678;23.332;2022-08-21T11:46:48;2.63;;;2.42;;
13208;SDS011;6669;42.678;23.332;2022-08-21T11:52:52;2.05;;;1.92;;
13208;SDS011;6669;42.678;23.332;2022-08-21T11:55:28;1.70;;;1.60;;
13208;SDS011;6669;42.678;23.332;2022-08-21T11:58:04;1.58;;;1.48;;
13208;SDS011;6669;42.678;23.332;2022-08-21T12:00:38;1.70;;;1.60;;
13208;SDS011;6669;42.678;23.332;2022-08-21T12:03:13;1.70;;;1.60;;
13208;SDS011;6669;42.678;23.332;2022-08-21T12:05:44;1.65;;;1.55;;
13208;SDS011;6669;42.678;23.332;2022-08-21T12:08:26;1.60;;;1.50;;
13208;SDS011;6669;42.678;23.332;2022-08-21T12:11:01;2.13;;;1.92;;
13208;SDS011;6669;42.678;23.332;2022-08-21T12:13:34;1.85;;;1.70;;
13208;SDS011;6669;42.678;23.332;2022-08-21T12:16:30;1.52;;;1.42;;
13208;SDS011;6669;42.678;23.332;2022-08-21T12:19:03;1.80;;;1.70;;
13208;SDS011;6669;42.678;23.332;2022-08-21T12:21:33;2.88;;;1.80;;
13208;SDS011;6669;42.678;23.332;2022-08-21T12:24:17;1.48;;;1.38;;
13208;SDS011;6669;42.678;23.332;2022-08-21T12:26:53;1.92;;;1.83;;
13208;SDS011;6669;42.678;23.332;2022-08-21T12:29:25;2.25;;;2.05;;
13208;SDS011;6669;42.678;23.332;2022-08-21T12:31:59;1.90;;;1.80;;
13208;SDS011;6669;42.678;23.332;2022-08-21T12:34:33;2.20;;;2.03;;
13208;SDS011;6669;42.678;23.332;2022-08-21T12:37:05;1.75;;;1.60;;
13208;SDS011;6669;42.678;23.332;2022-08-21T12:39:43;2.35;;;1.67;;
13208;SDS011;6669;42.678;23.332;2022-08-21T12:42:16;1.88;;;1.77;;
13208;SDS011;6669;42.678;23.332;2022-08-21T12:44:48;2.05;;;1.90;;
13208;SDS011;6669;42.678;23.332;2022-08-21T12:47:25;1.98;;;1.77;;
13208;SDS011;6669;42.678;23.332;2022-08-21T12:50:03;1.90;;;1.67;;
13208;SDS011;6669;42.678;23.332;2022-08-21T12:52:38;2.30;;;2.10;;
13208;SDS011;6669;42.678;23.332;2022-08-21T12:55:11;1.88;;;1.77;;
13208;SDS011;6669;42.678;23.332;2022-08-21T12:57:42;2.45;;;2.13;;
13208;SDS011;6669;42.678;23.332;2022-08-21T13:00:12;2.13;;;1.92;;
13208;SDS011;6669;42.678;23.332;2022-08-21T13:02:45;2.10;;;1.90;;
13208;SDS011;6669;42.678;23.332;2022-08-21T13:05:19;2.08;;;1.88;;
13208;SDS011;6669;42.678;23.332;2022-08-21T13:07:56;2.10;;;1.92;;
13208;SDS011;6669;42.678;23.332;2022-08-21T13:10:26;2.08;;;1.88;;
13208;SDS011;6669;42.678;23.332;2022-08-21T13:12:57;1.70;;;1.60;;
13208;SDS011;6669;42.678;23.332;2022-08-21T13:15:38;1.60;;;1.50;;
13208;SDS011;6669;42.678;23.332;2022-08-21T13:18:25;2.53;;;2.10;;
13208;SDS011;6669;42.678;23.332;2022-08-21T13:21:05;1.88;;;1.77;;
13208;SDS011;6669;42.678;23.332;2022-08-21T13:23:35;2.03;;;1.83;;
13208;SDS011;6669;42.678;23.332;2022-08-21T13:26:11;1.70;;;1.60;;
13208;SDS011;6669;42.678;23.332;2022-08-21T13:28:43;2.28;;;2.10;;
13208;SDS011;6669;42.678;23.332;2022-08-21T13:31:16;1.70;;;1.60;;
13208;SDS011;6669;42.678;23.332;2022-08-21T13:33:52;1.60;;;1.50;;
13208;SDS011;6669;42.678;23.332;2022-08-21T13:36:24;1.98;;;1.58;;
13208;SDS011;6669;42.678;23.332;2022-08-21T13:38:54;1.60;;;1.50;;
13208;SDS011;6669;42.678;23.332;2022-08-21T13:41:24;1.58;;;1.48;;
13208;SDS011;6669;42.678;23.332;2022-08-21T13:43:58;1.67;;;1.55;;
13208;SDS011;6669;42.678;23.332;2022-08-21T13:46:29;2.28;;;1.80;;
13208;SDS011;6669;42.678;23.332;2022-08-21T13:49:03;1.42;;;1.33;;
13208;SDS011;6669;42.678;23.332;2022-08-21T13:51:33;1.73;;;1.63;;
13208;SDS011;6669;42.678;23.332;2022-08-21T13:54:13;1.63;;;1.52;;
13208;SDS011;6669;42.678;23.332;2022-08-21T13:56:43;2.10;;;1.90;;
13208;SDS011;6669;42.678;23.332;2022-08-21T13:59:29;1.73;;;1.63;;
13208;SDS011;6669;42.678;23.332;2022-08-21T14:01:59;1.60;;;1.50;;
13208;SDS011;6669;42.678;23.332;2022-08-21T14:04:38;2.00;;;1.80;;
13208;SDS011;6669;42.678;23.332;2022-08-21T14:07:19;2.75;;;2.53;;
13208;SDS011;6669;42.678;23.332;2022-08-21T14:09:52;2.03;;;1.90;;
13208;SDS011;6669;42.678;23.332;2022-08-21T14:12:24;1.60;;;1.50;;
13208;SDS011;6669;42.678;23.332;2022-08-21T14:14:54;1.60;;;1.50;;
13208;SDS011;6669;42.678;23.332;2022-08-21T14:17:26;1.60;;;1.50;;
13208;SDS011;6669;42.678;23.332;2022-08-21T14:20:01;1.73;;;1.63;;
13208;SDS011;6669;42.678;23.332;2022-08-21T14:22:32;1.88;;;1.65;;
13208;SDS011;6669;42.678;23.332;2022-08-21T14:25:06;1.70;;;1.60;;
13208;SDS011;6669;42.678;23.332;2022-08-21T14:27:38;1.85;;;1.65;;
13208;SDS011;6669;42.678;23.332;2022-08-21T14:30:12;1.70;;;1.60;;
13208;SDS011;6669;42.678;23.332;2022-08-21T14:32:46;2.08;;;1.70;;
13208;SDS011;6669;42.678;23.332;2022-08-21T14:35:17;1.85;;;1.63;;
13208;SDS011;6669;42.678;23.332;2022-08-21T14:37:50;2.10;;;1.58;;
13208;SDS011;6669;42.678;23.332;2022-08-21T14:40:19;1.67;;;1.58;;
13208;SDS011;6669;42.678;23.332;2022-08-21T14:42:49;1.70;;;1.60;;
13208;SDS011;6669;42.678;23.332;2022-08-21T14:45:19;1.95;;;1.77;;
13208;SDS011;6669;42.678;23.332;2022-08-21T14:47:53;1.77;;;1.50;;
13208;SDS011;6669;42.678;23.332;2022-08-21T14:50:23;1.92;;;1.83;;
13208;SDS011;6669;42.678;23.332;2022-08-21T14:52:53;1.95;;;1.75;;
13208;SDS011;6669;42.678;23.332;2022-08-21T14:55:22;2.05;;;1.85;;
13208;SDS011;6669;42.678;23.332;2022-08-21T14:57:51;2.15;;;1.95;;
13208;SDS011;6669;42.678;23.332;2022-08-21T15:00:23;3.35;;;2.20;;
13208;SDS011;6669;42.678;23.332;2022-08-21T15:03:01;1.98;;;1.77;;
13208;SDS011;6669;42.678;23.332;2022-08-21T15:05:33;1.77;;;1.65;;
13208;SDS011;6669;42.678;23.332;2022-08-21T15:08:01;4.00;;;3.60;;
13208;SDS011;6669;42.678;23.332;2022-08-21T15:10:31;2.88;;;2.53;;
13208;SDS011;6669;42.678;23.332;2022-08-21T15:13:22;2.08;;;1.88;;
13208;SDS011;6669;42.678;23.332;2022-08-21T15:15:51;2.20;;;2.00;;
13208;SDS011;6669;42.678;23.332;2022-08-21T15:18:20;2.45;;;2.00;;
13208;SDS011;6669;42.678;23.332;2022-08-21T15:20:51;2.00;;;1.80;;
13208;SDS011;6669;42.678;23.332;2022-08-21T15:23:19;1.90;;;1.75;;
13208;SDS011;6669;42.678;23.332;2022-08-21T15:25:48;1.70;;;1.60;;